Velserdiep — PBLP — position and weather

sailwx.info

Track history (hours):
 
Tides and Currents Weather Stations Pressure Air Temp Water Temp Dewpoint Dewpoint Depression Visibility Wind Speed Wind Dir Waves Ship Positions

Velserdiep

Last reported at 2016-May-31 07:33 UTC. Time now 2016-May-31 07:52 UTC.
Position N 52°28' E 004°35'.

Length 120 m; draft 5 m.

Type: Cargo ship. MMSI: 244484000.

Date/timePositionNaut miles runAvg speedWind from/ knotsBaromVisibWave heightAir tempDewpointWater temp
2016-May-31 07:33N 52°28' E 004°35'0 0.0
2016-May-31 06:33N 52°28' E 004°35'0 0.0
2016-May-31 04:33N 52°28' E 004°35'0 0.0
2016-May-31 03:33N 52°28' E 004°35'0 0.0
2016-May-31 02:33N 52°28' E 004°35'0 0.0
2016-May-31 01:33N 52°28' E 004°35'0 0.0
2016-May-31 00:33N 52°28' E 004°35'0 0.0
2016-May-30 23:33N 52°28' E 004°35'0 0.0
2016-May-30 22:33N 52°28' E 004°35'0 0.0
2016-May-30 21:33N 52°28' E 004°35'0 0.0
2016-May-30 20:33N 52°28' E 004°35'0 0.0
2016-May-30 19:33N 52°28' E 004°35'0 0.0
2016-May-30 18:33N 52°28' E 004°35'0 0.0
2016-May-30 17:33N 52°28' E 004°35'0 0.0
2016-May-30 16:33N 52°28' E 004°35'0 0.0
2016-May-30 15:33N 52°28' E 004°35'0 0.0
2016-May-30 14:33N 52°28' E 004°35'0 0.0
2016-May-30 13:33N 52°28' E 004°35'0 0.0
2016-May-30 12:33N 52°28' E 004°35'0 0.0
2016-May-30 11:33N 52°28' E 004°35'0 0.0
2016-May-30 10:33N 52°28' E 004°35'0 0.0
2016-May-30 09:33N 52°28' E 004°35'0 0.0
2016-May-30 08:33N 52°28' E 004°35'0 0.0
2016-May-30 07:33N 52°28' E 004°35'0 0.0
2016-May-30 06:33N 52°28' E 004°35'0 0.0
2016-May-30 05:33N 52°28' E 004°35'0 0.0
2016-May-30 04:33N 52°28' E 004°35'0 0.0
2016-May-30 03:33N 52°28' E 004°35'0 0.0
2016-May-30 02:34N 52°28' E 004°35'0 0.0
2016-May-30 01:33N 52°28' E 004°35'0 0.0
2016-May-30 00:33N 52°28' E 004°35'0 0.0
2016-May-29 22:33N 52°28' E 004°35'0 0.0
2016-May-29 21:33N 52°28' E 004°35'0 0.0
2016-May-29 20:33N 52°28' E 004°35'0 0.0
2016-May-29 19:33N 52°28' E 004°35'0 0.0
2016-May-29 18:33N 52°28' E 004°35'0 0.0
2016-May-29 17:33N 52°28' E 004°35'0 0.0
2016-May-29 16:33N 52°28' E 004°35'0 0.0
2016-May-29 15:33N 52°28' E 004°35'0 0.0
2016-May-29 14:33N 52°28' E 004°35'0 0.0
2016-May-29 13:33N 52°28' E 004°35'0 0.0
2016-May-29 12:33N 52°28' E 004°35'0 0.0
2016-May-29 11:33N 52°28' E 004°35'0 0.0
2016-May-29 10:33N 52°28' E 004°35'0 0.0
2016-May-29 09:33N 52°28' E 004°35'0 0.0
2016-May-29 08:33N 52°28' E 004°35'0 0.0
2016-May-29 07:33N 52°28' E 004°35'0 0.0
2016-May-29 06:33N 52°28' E 004°35'0 0.0
2016-May-29 05:33N 52°28' E 004°35'0 0.0
2016-May-29 04:33N 52°28' E 004°35'0 0.0
2016-May-29 03:33N 52°28' E 004°35'0 0.0
2016-May-29 02:33N 52°28' E 004°35'0 0.0
2016-May-29 01:33N 52°28' E 004°35'0 0.0
2016-May-29 00:33N 52°28' E 004°35'0 0.0
2016-May-28 23:33N 52°28' E 004°35'0 0.0
2016-May-28 22:33N 52°28' E 004°35'0 0.0
2016-May-28 21:33N 52°28' E 004°35'0 0.0
2016-May-28 20:33N 52°28' E 004°35'0 0.0
2016-May-28 19:33N 52°28' E 004°35'0 0.0
2016-May-28 18:33N 52°28' E 004°35'0 0.0
2016-May-28 17:33N 52°28' E 004°35'0 0.0
2016-May-28 16:33N 52°28' E 004°35'0 0.0
2016-May-28 15:33N 52°28' E 004°35'0 0.0
2016-May-28 14:33N 52°28' E 004°35'0 0.0
2016-May-28 13:33N 52°28' E 004°35'0 0.0
2016-May-28 12:33N 52°28' E 004°35'0 0.0
2016-May-28 11:33N 52°28' E 004°35'0 0.0
2016-May-28 10:33N 52°28' E 004°35'0 0.0
2016-May-28 09:33N 52°28' E 004°35'0 0.0
2016-May-28 08:33N 52°28' E 004°35'0 0.0
2016-May-28 07:33N 52°28' E 004°35'0 0.0
2016-May-28 06:33N 52°28' E 004°35'9 1.7
2016-May-28 01:18N 52°36' E 004°36'0 0.5
2016-May-28 00:32N 52°37' E 004°36'1 0.6
2016-May-27 23:32N 52°37' E 004°36'0 0.0
2016-May-27 22:33N 52°37' E 004°36'2 1.2
2016-May-27 20:33N 52°39' E 004°37'7 6.8
2016-May-27 19:33N 52°33' E 004°35'5 5.2
2016-May-27 18:33N 52°28' E 004°35'0 0.0
2016-May-27 17:33N 52°28' E 004°35'0 0.0
2016-May-27 16:33N 52°28' E 004°35'0 0.0
2016-May-27 15:33N 52°28' E 004°35'0 0.0
2016-May-27 14:33N 52°28' E 004°35'0 0.0
2016-May-27 13:33N 52°28' E 004°35'0 0.0
2016-May-27 12:33N 52°28' E 004°35'0 0.0
2016-May-27 11:33N 52°28' E 004°35'0 0.0
2016-May-27 10:33N 52°28' E 004°35'0 0.0
2016-May-27 09:33N 52°28' E 004°35'0 0.0
2016-May-27 08:33N 52°28' E 004°35'0 0.0
2016-May-27 07:33N 52°28' E 004°35'0 0.2
2016-May-27 06:33N 52°28' E 004°35'6 5.5
2016-May-27 05:33N 52°33' E 004°35'3 2.9
2016-May-27 04:33N 52°36' E 004°35'3 2.6
2016-May-27 03:31N 52°39' E 004°36'4 2.9
2016-May-27 02:18N 52°42' E 004°37'6 0.8
2016-May-26 19:17N 52°37' E 004°36'5 7.5
2016-May-26 18:33N 52°31' E 004°34'4 4.0
2016-May-26 17:34N 52°28' E 004°35'0 0.0
2016-May-26 16:33N 52°28' E 004°35'0 0.0
2016-May-26 15:33N 52°28' E 004°35'0 0.0
2016-May-26 14:34N 52°28' E 004°35'0 0.0
2016-May-26 13:34N 52°28' E 004°35'0 0.0
2016-May-26 12:33N 52°28' E 004°35'0 0.0
2016-May-26 11:33N 52°28' E 004°35'0 0.0
2016-May-26 10:33N 52°28' E 004°35'0 0.0
2016-May-26 09:33N 52°28' E 004°35'0 0.0
2016-May-26 08:34N 52°28' E 004°35'0 0.0
2016-May-26 07:34N 52°28' E 004°35'0 0.0
2016-May-26 06:33N 52°28' E 004°35'0 0.0
2016-May-26 05:33N 52°28' E 004°35'0 0.0
2016-May-26 04:33N 52°28' E 004°35'0 0.0
2016-May-26 03:33N 52°28' E 004°35'0 0.0
2016-May-26 02:34N 52°28' E 004°35'0 0.0
2016-May-26 01:33N 52°28' E 004°35'0 0.0
2016-May-26 00:34N 52°28' E 004°35'0 0.0
2016-May-25 23:33N 52°28' E 004°35'0 0.0
2016-May-25 22:32N 52°28' E 004°35'0 0.0
2016-May-25 21:34N 52°28' E 004°35'0 0.0
2016-May-25 20:33N 52°28' E 004°35'0 0.0
2016-May-25 19:33N 52°28' E 004°35'0 0.0
2016-May-25 18:33N 52°28' E 004°35'0 0.0
2016-May-25 17:34N 52°28' E 004°35'0 0.0
2016-May-25 16:33N 52°28' E 004°35'0 0.0
2016-May-25 15:34N 52°28' E 004°35'0 0.0
2016-May-25 14:32N 52°28' E 004°35'0 0.0
2016-May-25 13:33N 52°28' E 004°35'0 0.0
2016-May-25 12:33N 52°28' E 004°35'0 0.0
2016-May-25 11:33N 52°28' E 004°35'0 0.0
2016-May-25 10:33N 52°28' E 004°35'0 0.0
2016-May-25 09:33N 52°28' E 004°35'0 0.0
2016-May-24 11:19N 52°28' E 004°35'0 0.0
2016-May-24 10:33N 52°28' E 004°35'0 0.0
2016-May-24 09:33N 52°28' E 004°35'0 0.0
2016-May-24 08:33N 52°28' E 004°35'0 0.0
2016-May-24 07:33N 52°28' E 004°35'0 0.0
2016-May-24 06:33N 52°28' E 004°35'0 0.0
2016-May-24 05:33N 52°28' E 004°35'0 0.0
2016-May-24 04:33N 52°28' E 004°35'0 0.0
2016-May-24 03:33N 52°28' E 004°35'0 0.0
2016-May-24 02:33N 52°28' E 004°35'0 0.0
2016-May-24 01:33N 52°28' E 004°35'0 0.0
2016-May-24 00:33N 52°28' E 004°35'0 0.0
2016-May-23 23:33N 52°28' E 004°35'0 0.0
2016-May-23 22:33N 52°28' E 004°35'0 0.0
2016-May-23 21:33N 52°28' E 004°35'0 0.0
2016-May-23 20:33N 52°28' E 004°35'0 0.0
2016-May-23 19:33N 52°28' E 004°35'0 0.0
2016-May-23 18:33N 52°28' E 004°35'0 0.0
2016-May-23 17:33N 52°28' E 004°35'0 0.0
2016-May-23 16:33N 52°28' E 004°35'0 0.0
2016-May-23 15:33N 52°28' E 004°35'0 0.0
2016-May-23 14:33N 52°28' E 004°35'0 0.0
2016-May-23 13:33N 52°28' E 004°35'0 0.0
2016-May-23 12:33N 52°28' E 004°35'0 0.0
2016-May-23 11:33N 52°28' E 004°35'0 0.0
2016-May-23 10:33N 52°28' E 004°35'0 0.0
2016-May-23 09:33N 52°28' E 004°35'0 0.0
2016-May-23 08:33N 52°28' E 004°35'0 0.0
2016-May-23 07:33N 52°28' E 004°35'0 0.0
2016-May-23 06:33N 52°28' E 004°35'0 0.0
2016-May-23 05:33N 52°28' E 004°35'0 0.0
2016-May-23 04:33N 52°28' E 004°35'0 0.0
2016-May-23 03:33N 52°28' E 004°35'0 0.0
2016-May-23 02:33N 52°28' E 004°35'0 0.0
2016-May-23 01:33N 52°28' E 004°35'0 0.0
2016-May-23 00:33N 52°28' E 004°35'0 0.0
2016-May-22 23:33N 52°28' E 004°35'0 0.0
2016-May-22 22:33N 52°28' E 004°35'0 0.0
2016-May-22 21:33N 52°28' E 004°35'0 0.0
2016-May-22 20:33N 52°28' E 004°35'0 0.0
2016-May-22 19:33N 52°28' E 004°35'0 0.0
2016-May-22 18:33N 52°28' E 004°35'0 0.0
2016-May-22 17:33N 52°28' E 004°35'0 0.0
2016-May-22 16:33N 52°28' E 004°35'0 0.0
2016-May-22 15:33N 52°28' E 004°35'0 0.0
2016-May-22 14:33N 52°28' E 004°35'0 0.0
2016-May-22 13:33N 52°28' E 004°35'0 0.0
2016-May-22 12:33N 52°28' E 004°35'0 0.0
2016-May-22 11:33N 52°28' E 004°35'0 0.0
2016-May-22 10:33N 52°28' E 004°35'0 0.0
2016-May-21 12:05N 52°28' E 004°35'0 0.0
2016-May-21 11:33N 52°28' E 004°35'0 0.0
2016-May-21 10:33N 52°28' E 004°35'0 0.0
2016-May-21 09:33N 52°28' E 004°35'0 0.0
2016-May-21 08:33N 52°28' E 004°35'  
Track history (hours):
 
Tides and Currents Weather Stations Pressure Air Temp Water Temp Dewpoint Dewpoint Depression Visibility Wind Speed Wind Dir Waves Ship Positions

Velserdiep

Last reported at 2016-May-31 07:33 UTC. Time now 2016-May-31 07:52 UTC.
Position N 52°28' E 004°35'.

Length 120 m; draft 5 m.

Type: Cargo ship. MMSI: 244484000.

Date/timePositionNaut miles runAvg speedWind from/ knotsBaromVisibWave heightAir tempDewpointWater temp
2016-May-31 07:33N 52°28' E 004°35'0 0.0
2016-May-31 06:33N 52°28' E 004°35'0 0.0
2016-May-31 04:33N 52°28' E 004°35'0 0.0
2016-May-31 03:33N 52°28' E 004°35'0 0.0
2016-May-31 02:33N 52°28' E 004°35'0 0.0
2016-May-31 01:33N 52°28' E 004°35'0 0.0
2016-May-31 00:33N 52°28' E 004°35'0 0.0
2016-May-30 23:33N 52°28' E 004°35'0 0.0
2016-May-30 22:33N 52°28' E 004°35'0 0.0
2016-May-30 21:33N 52°28' E 004°35'0 0.0
2016-May-30 20:33N 52°28' E 004°35'0 0.0
2016-May-30 19:33N 52°28' E 004°35'0 0.0
2016-May-30 18:33N 52°28' E 004°35'0 0.0
2016-May-30 17:33N 52°28' E 004°35'0 0.0
2016-May-30 16:33N 52°28' E 004°35'0 0.0
2016-May-30 15:33N 52°28' E 004°35'0 0.0
2016-May-30 14:33N 52°28' E 004°35'0 0.0
2016-May-30 13:33N 52°28' E 004°35'0 0.0
2016-May-30 12:33N 52°28' E 004°35'0 0.0
2016-May-30 11:33N 52°28' E 004°35'0 0.0
2016-May-30 10:33N 52°28' E 004°35'0 0.0
2016-May-30 09:33N 52°28' E 004°35'0 0.0
2016-May-30 08:33N 52°28' E 004°35'0 0.0
2016-May-30 07:33N 52°28' E 004°35'0 0.0
2016-May-30 06:33N 52°28' E 004°35'0 0.0
2016-May-30 05:33N 52°28' E 004°35'0 0.0
2016-May-30 04:33N 52°28' E 004°35'0 0.0
2016-May-30 03:33N 52°28' E 004°35'0 0.0
2016-May-30 02:34N 52°28' E 004°35'0 0.0
2016-May-30 01:33N 52°28' E 004°35'0 0.0
2016-May-30 00:33N 52°28' E 004°35'0 0.0
2016-May-29 22:33N 52°28' E 004°35'0 0.0
2016-May-29 21:33N 52°28' E 004°35'0 0.0
2016-May-29 20:33N 52°28' E 004°35'0 0.0
2016-May-29 19:33N 52°28' E 004°35'0 0.0
2016-May-29 18:33N 52°28' E 004°35'0 0.0
2016-May-29 17:33N 52°28' E 004°35'0 0.0
2016-May-29 16:33N 52°28' E 004°35'0 0.0
2016-May-29 15:33N 52°28' E 004°35'0 0.0
2016-May-29 14:33N 52°28' E 004°35'0 0.0
2016-May-29 13:33N 52°28' E 004°35'0 0.0
2016-May-29 12:33N 52°28' E 004°35'0 0.0
2016-May-29 11:33N 52°28' E 004°35'0 0.0
2016-May-29 10:33N 52°28' E 004°35'0 0.0
2016-May-29 09:33N 52°28' E 004°35'0 0.0
2016-May-29 08:33N 52°28' E 004°35'0 0.0
2016-May-29 07:33N 52°28' E 004°35'0 0.0
2016-May-29 06:33N 52°28' E 004°35'0 0.0
2016-May-29 05:33N 52°28' E 004°35'0 0.0
2016-May-29 04:33N 52°28' E 004°35'0 0.0
2016-May-29 03:33N 52°28' E 004°35'0 0.0
2016-May-29 02:33N 52°28' E 004°35'0 0.0
2016-May-29 01:33N 52°28' E 004°35'0 0.0
2016-May-29 00:33N 52°28' E 004°35'0 0.0
2016-May-28 23:33N 52°28' E 004°35'0 0.0
2016-May-28 22:33N 52°28' E 004°35'0 0.0
2016-May-28 21:33N 52°28' E 004°35'0 0.0
2016-May-28 20:33N 52°28' E 004°35'0 0.0
2016-May-28 19:33N 52°28' E 004°35'0 0.0
2016-May-28 18:33N 52°28' E 004°35'0 0.0
2016-May-28 17:33N 52°28' E 004°35'0 0.0
2016-May-28 16:33N 52°28' E 004°35'0 0.0
2016-May-28 15:33N 52°28' E 004°35'0 0.0
2016-May-28 14:33N 52°28' E 004°35'0 0.0
2016-May-28 13:33N 52°28' E 004°35'0 0.0
2016-May-28 12:33N 52°28' E 004°35'0 0.0
2016-May-28 11:33N 52°28' E 004°35'0 0.0
2016-May-28 10:33N 52°28' E 004°35'0 0.0
2016-May-28 09:33N 52°28' E 004°35'0 0.0
2016-May-28 08:33N 52°28' E 004°35'0 0.0
2016-May-28 07:33N 52°28' E 004°35'0 0.0
2016-May-28 06:33N 52°28' E 004°35'9 1.7
2016-May-28 01:18N 52°36' E 004°36'0 0.5
2016-May-28 00:32N 52°37' E 004°36'1 0.6
2016-May-27 23:32N 52°37' E 004°36'0 0.0
2016-May-27 22:33N 52°37' E 004°36'2 1.2
2016-May-27 20:33N 52°39' E 004°37'7 6.8
2016-May-27 19:33N 52°33' E 004°35'5 5.2
2016-May-27 18:33N 52°28' E 004°35'0 0.0
2016-May-27 17:33N 52°28' E 004°35'0 0.0
2016-May-27 16:33N 52°28' E 004°35'0 0.0
2016-May-27 15:33N 52°28' E 004°35'0 0.0
2016-May-27 14:33N 52°28' E 004°35'0 0.0
2016-May-27 13:33N 52°28' E 004°35'0 0.0
2016-May-27 12:33N 52°28' E 004°35'0 0.0
2016-May-27 11:33N 52°28' E 004°35'0 0.0
2016-May-27 10:33N 52°28' E 004°35'0 0.0
2016-May-27 09:33N 52°28' E 004°35'0 0.0
2016-May-27 08:33N 52°28' E 004°35'0 0.0
2016-May-27 07:33N 52°28' E 004°35'0 0.2
2016-May-27 06:33N 52°28' E 004°35'6 5.5
2016-May-27 05:33N 52°33' E 004°35'3 2.9
2016-May-27 04:33N 52°36' E 004°35'3 2.6
2016-May-27 03:31N 52°39' E 004°36'4 2.9
2016-May-27 02:18N 52°42' E 004°37'6 0.8
2016-May-26 19:17N 52°37' E 004°36'5 7.5
2016-May-26 18:33N 52°31' E 004°34'4 4.0
2016-May-26 17:34N 52°28' E 004°35'0 0.0
2016-May-26 16:33N 52°28' E 004°35'0 0.0
2016-May-26 15:33N 52°28' E 004°35'0 0.0
2016-May-26 14:34N 52°28' E 004°35'0 0.0
2016-May-26 13:34N 52°28' E 004°35'0 0.0
2016-May-26 12:33N 52°28' E 004°35'0 0.0
2016-May-26 11:33N 52°28' E 004°35'0 0.0
2016-May-26 10:33N 52°28' E 004°35'0 0.0
2016-May-26 09:33N 52°28' E 004°35'0 0.0
2016-May-26 08:34N 52°28' E 004°35'0 0.0
2016-May-26 07:34N 52°28' E 004°35'0 0.0
2016-May-26 06:33N 52°28' E 004°35'0 0.0
2016-May-26 05:33N 52°28' E 004°35'0 0.0
2016-May-26 04:33N 52°28' E 004°35'0 0.0
2016-May-26 03:33N 52°28' E 004°35'0 0.0
2016-May-26 02:34N 52°28' E 004°35'0 0.0
2016-May-26 01:33N 52°28' E 004°35'0 0.0
2016-May-26 00:34N 52°28' E 004°35'0 0.0
2016-May-25 23:33N 52°28' E 004°35'0 0.0
2016-May-25 22:32N 52°28' E 004°35'0 0.0
2016-May-25 21:34N 52°28' E 004°35'0 0.0
2016-May-25 20:33N 52°28' E 004°35'0 0.0
2016-May-25 19:33N 52°28' E 004°35'0 0.0
2016-May-25 18:33N 52°28' E 004°35'0 0.0
2016-May-25 17:34N 52°28' E 004°35'0 0.0
2016-May-25 16:33N 52°28' E 004°35'0 0.0
2016-May-25 15:34N 52°28' E 004°35'0 0.0
2016-May-25 14:32N 52°28' E 004°35'0 0.0
2016-May-25 13:33N 52°28' E 004°35'0 0.0
2016-May-25 12:33N 52°28' E 004°35'0 0.0
2016-May-25 11:33N 52°28' E 004°35'0 0.0
2016-May-25 10:33N 52°28' E 004°35'0 0.0
2016-May-25 09:33N 52°28' E 004°35'0 0.0
2016-May-24 11:19N 52°28' E 004°35'0 0.0
2016-May-24 10:33N 52°28' E 004°35'0 0.0
2016-May-24 09:33N 52°28' E 004°35'0 0.0
2016-May-24 08:33N 52°28' E 004°35'0 0.0
2016-May-24 07:33N 52°28' E 004°35'0 0.0
2016-May-24 06:33N 52°28' E 004°35'0 0.0
2016-May-24 05:33N 52°28' E 004°35'0 0.0
2016-May-24 04:33N 52°28' E 004°35'0 0.0
2016-May-24 03:33N 52°28' E 004°35'0 0.0
2016-May-24 02:33N 52°28' E 004°35'0 0.0
2016-May-24 01:33N 52°28' E 004°35'0 0.0
2016-May-24 00:33N 52°28' E 004°35'0 0.0
2016-May-23 23:33N 52°28' E 004°35'0 0.0
2016-May-23 22:33N 52°28' E 004°35'0 0.0
2016-May-23 21:33N 52°28' E 004°35'0 0.0
2016-May-23 20:33N 52°28' E 004°35'0 0.0
2016-May-23 19:33N 52°28' E 004°35'0 0.0
2016-May-23 18:33N 52°28' E 004°35'0 0.0
2016-May-23 17:33N 52°28' E 004°35'0 0.0
2016-May-23 16:33N 52°28' E 004°35'0 0.0
2016-May-23 15:33N 52°28' E 004°35'0 0.0
2016-May-23 14:33N 52°28' E 004°35'0 0.0
2016-May-23 13:33N 52°28' E 004°35'0 0.0
2016-May-23 12:33N 52°28' E 004°35'0 0.0
2016-May-23 11:33N 52°28' E 004°35'0 0.0
2016-May-23 10:33N 52°28' E 004°35'0 0.0
2016-May-23 09:33N 52°28' E 004°35'0 0.0
2016-May-23 08:33N 52°28' E 004°35'0 0.0
2016-May-23 07:33N 52°28' E 004°35'0 0.0
2016-May-23 06:33N 52°28' E 004°35'0 0.0
2016-May-23 05:33N 52°28' E 004°35'0 0.0
2016-May-23 04:33N 52°28' E 004°35'0 0.0
2016-May-23 03:33N 52°28' E 004°35'0 0.0
2016-May-23 02:33N 52°28' E 004°35'0 0.0
2016-May-23 01:33N 52°28' E 004°35'0 0.0
2016-May-23 00:33N 52°28' E 004°35'0 0.0
2016-May-22 23:33N 52°28' E 004°35'0 0.0
2016-May-22 22:33N 52°28' E 004°35'0 0.0
2016-May-22 21:33N 52°28' E 004°35'0 0.0
2016-May-22 20:33N 52°28' E 004°35'0 0.0
2016-May-22 19:33N 52°28' E 004°35'0 0.0
2016-May-22 18:33N 52°28' E 004°35'0 0.0
2016-May-22 17:33N 52°28' E 004°35'0 0.0
2016-May-22 16:33N 52°28' E 004°35'0 0.0
2016-May-22 15:33N 52°28' E 004°35'0 0.0
2016-May-22 14:33N 52°28' E 004°35'0 0.0
2016-May-22 13:33N 52°28' E 004°35'0 0.0
2016-May-22 12:33N 52°28' E 004°35'0 0.0
2016-May-22 11:33N 52°28' E 004°35'0 0.0
2016-May-22 10:33N 52°28' E 004°35'0 0.0
2016-May-21 12:05N 52°28' E 004°35'0 0.0
2016-May-21 11:33N 52°28' E 004°35'0 0.0
2016-May-21 10:33N 52°28' E 004°35'0 0.0
2016-May-21 09:33N 52°28' E 004°35'0 0.0
2016-May-21 08:33N 52°28' E 004°35'  

Dump ship's entire track history